sensor_id;sensor_type;location;lat;lon;timestamp;P1;durP1;ratioP1;P2;durP2;ratioP2
17504;SDS011;8870;50.950;11.762;2023-05-27T00:01:12;8.65;;;2.65;;
17504;SDS011;8870;50.950;11.762;2023-05-27T00:06:30;7.82;;;2.78;;
17504;SDS011;8870;50.950;11.762;2023-05-27T00:12:05;6.60;;;2.60;;
17504;SDS011;8870;50.950;11.762;2023-05-27T00:17:23;9.07;;;2.53;;
17504;SDS011;8870;50.950;11.762;2023-05-27T00:22:56;9.10;;;2.92;;
17504;SDS011;8870;50.950;11.762;2023-05-27T00:28:17;9.13;;;2.72;;
17504;SDS011;8870;50.950;11.762;2023-05-27T00:33:50;8.55;;;2.50;;
17504;SDS011;8870;50.950;11.762;2023-05-27T00:39:08;8.40;;;2.78;;
17504;SDS011;8870;50.950;11.762;2023-05-27T00:44:44;6.55;;;2.50;;
17504;SDS011;8870;50.950;11.762;2023-05-27T00:50:03;8.82;;;2.90;;
17504;SDS011;8870;50.950;11.762;2023-05-27T00:55:35;8.13;;;2.70;;
17504;SDS011;8870;50.950;11.762;2023-05-27T01:00:56;8.77;;;2.75;;
17504;SDS011;8870;50.950;11.762;2023-05-27T01:06:32;11.23;;;2.90;;
17504;SDS011;8870;50.950;11.762;2023-05-27T01:11:59;8.82;;;3.03;;
17504;SDS011;8870;50.950;11.762;2023-05-27T01:17:45;7.22;;;2.70;;
17504;SDS011;8870;50.950;11.762;2023-05-27T01:23:08;7.57;;;2.80;;
17504;SDS011;8870;50.950;11.762;2023-05-27T01:28:27;8.00;;;2.70;;
17504;SDS011;8870;50.950;11.762;2023-05-27T01:33:59;8.48;;;2.75;;
17504;SDS011;8870;50.950;11.762;2023-05-27T01:39:31;8.27;;;2.83;;
17504;SDS011;8870;50.950;11.762;2023-05-27T01:45:03;8.93;;;2.95;;
17504;SDS011;8870;50.950;11.762;2023-05-27T01:50:23;7.45;;;2.75;;
17504;SDS011;8870;50.950;11.762;2023-05-27T01:55:57;7.57;;;2.85;;
17504;SDS011;8870;50.950;11.762;2023-05-27T02:01:16;6.97;;;2.65;;
17504;SDS011;8870;50.950;11.762;2023-05-27T02:06:49;6.30;;;2.53;;
17504;SDS011;8870;50.950;11.762;2023-05-27T02:12:10;7.95;;;2.88;;
17504;SDS011;8870;50.950;11.762;2023-05-27T02:17:41;9.70;;;2.88;;
17504;SDS011;8870;50.950;11.762;2023-05-27T02:23:07;7.43;;;3.03;;
17504;SDS011;8870;50.950;11.762;2023-05-27T02:28:41;8.63;;;2.60;;
17504;SDS011;8870;50.950;11.762;2023-05-27T02:34:00;7.18;;;2.67;;
17504;SDS011;8870;50.950;11.762;2023-05-27T02:39:32;8.05;;;2.60;;
17504;SDS011;8870;50.950;11.762;2023-05-27T02:44:53;6.80;;;2.75;;
17504;SDS011;8870;50.950;11.762;2023-05-27T02:50:24;10.75;;;3.00;;
17504;SDS011;8870;50.950;11.762;2023-05-27T02:55:42;8.00;;;2.85;;
17504;SDS011;8870;50.950;11.762;2023-05-27T03:01:17;6.00;;;2.50;;
17504;SDS011;8870;50.950;11.762;2023-05-27T03:06:36;8.50;;;2.90;;
17504;SDS011;8870;50.950;11.762;2023-05-27T03:12:09;12.82;;;3.63;;
17504;SDS011;8870;50.950;11.762;2023-05-27T03:17:30;8.05;;;2.95;;
17504;SDS011;8870;50.950;11.762;2023-05-27T03:23:02;8.80;;;2.80;;
17504;SDS011;8870;50.950;11.762;2023-05-27T03:28:22;7.85;;;2.80;;
17504;SDS011;8870;50.950;11.762;2023-05-27T03:33:56;8.15;;;3.00;;
17504;SDS011;8870;50.950;11.762;2023-05-27T03:39:22;9.13;;;3.00;;
17504;SDS011;8870;50.950;11.762;2023-05-27T03:44:53;7.57;;;2.92;;
17504;SDS011;8870;50.950;11.762;2023-05-27T03:50:15;8.20;;;3.13;;
17504;SDS011;8870;50.950;11.762;2023-05-27T03:55:46;12.48;;;3.55;;
17504;SDS011;8870;50.950;11.762;2023-05-27T04:01:04;7.43;;;2.90;;
17504;SDS011;8870;50.950;11.762;2023-05-27T04:06:34;9.88;;;3.00;;
17504;SDS011;8870;50.950;11.762;2023-05-27T04:12:00;8.63;;;3.00;;
17504;SDS011;8870;50.950;11.762;2023-05-27T04:17:18;8.05;;;2.83;;
17504;SDS011;8870;50.950;11.762;2023-05-27T04:22:52;9.38;;;3.50;;
17504;SDS011;8870;50.950;11.762;2023-05-27T04:28:11;8.00;;;3.17;;
17504;SDS011;8870;50.950;11.762;2023-05-27T04:33:43;8.73;;;3.00;;
17504;SDS011;8870;50.950;11.762;2023-05-27T04:39:05;8.10;;;3.00;;
17504;SDS011;8870;50.950;11.762;2023-05-27T04:44:36;6.47;;;3.00;;
17504;SDS011;8870;50.950;11.762;2023-05-27T04:49:55;8.00;;;3.05;;
17504;SDS011;8870;50.950;11.762;2023-05-27T04:55:30;6.80;;;2.80;;
17504;SDS011;8870;50.950;11.762;2023-05-27T05:00:49;8.07;;;3.10;;
17504;SDS011;8870;50.950;11.762;2023-05-27T05:06:22;7.40;;;2.80;;
17504;SDS011;8870;50.950;11.762;2023-05-27T05:11:44;9.90;;;3.30;;
17504;SDS011;8870;50.950;11.762;2023-05-27T05:17:19;9.60;;;3.20;;
17504;SDS011;8870;50.950;11.762;2023-05-27T05:22:39;10.88;;;3.28;;
17504;SDS011;8870;50.950;11.762;2023-05-27T05:28:13;10.05;;;3.45;;
17504;SDS011;8870;50.950;11.762;2023-05-27T05:33:31;9.10;;;3.40;;
17504;SDS011;8870;50.950;11.762;2023-05-27T05:39:02;8.82;;;3.33;;
17504;SDS011;8870;50.950;11.762;2023-05-27T05:44:27;11.20;;;3.85;;
17504;SDS011;8870;50.950;11.762;2023-05-27T05:50:00;8.98;;;3.45;;
17504;SDS011;8870;50.950;11.762;2023-05-27T05:55:19;11.00;;;3.47;;
17504;SDS011;8870;50.950;11.762;2023-05-27T06:00:53;9.48;;;3.83;;
17504;SDS011;8870;50.950;11.762;2023-05-27T06:06:15;11.07;;;3.50;;
17504;SDS011;8870;50.950;11.762;2023-05-27T06:12:08;9.82;;;3.47;;
17504;SDS011;8870;50.950;11.762;2023-05-27T06:17:29;9.77;;;3.45;;
17504;SDS011;8870;50.950;11.762;2023-05-27T06:23:00;11.70;;;3.70;;
17504;SDS011;8870;50.950;11.762;2023-05-27T06:28:50;9.05;;;3.50;;
17504;SDS011;8870;50.950;11.762;2023-05-27T06:34:25;10.88;;;3.42;;
17504;SDS011;8870;50.950;11.762;2023-05-27T06:39:44;10.32;;;3.50;;
17504;SDS011;8870;50.950;11.762;2023-05-27T06:45:16;10.27;;;3.22;;
17504;SDS011;8870;50.950;11.762;2023-05-27T06:50:49;8.30;;;3.22;;
17504;SDS011;8870;50.950;11.762;2023-05-27T06:56:20;9.15;;;3.20;;
17504;SDS011;8870;50.950;11.762;2023-05-27T07:02:01;7.60;;;2.67;;
17504;SDS011;8870;50.950;11.762;2023-05-27T07:07:36;7.72;;;2.55;;
17504;SDS011;8870;50.950;11.762;2023-05-27T07:12:55;6.35;;;2.22;;
17504;SDS011;8870;50.950;11.762;2023-05-27T07:18:29;6.68;;;2.22;;
17504;SDS011;8870;50.950;11.762;2023-05-27T07:23:52;6.85;;;2.25;;
17504;SDS011;8870;50.950;11.762;2023-05-27T07:29:25;6.72;;;2.17;;
17504;SDS011;8870;50.950;11.762;2023-05-27T07:34:46;9.25;;;2.63;;
17504;SDS011;8870;50.950;11.762;2023-05-27T07:40:22;5.90;;;2.22;;
17504;SDS011;8870;50.950;11.762;2023-05-27T07:45:40;5.88;;;2.25;;
17504;SDS011;8870;50.950;11.762;2023-05-27T07:51:14;6.95;;;2.60;;
17504;SDS011;8870;50.950;11.762;2023-05-27T07:56:37;7.78;;;2.40;;
17504;SDS011;8870;50.950;11.762;2023-05-27T08:02:09;9.93;;;2.45;;
17504;SDS011;8870;50.950;11.762;2023-05-27T08:07:28;7.32;;;2.28;;
17504;SDS011;8870;50.950;11.762;2023-05-27T08:13:31;9.93;;;2.55;;
17504;SDS011;8870;50.950;11.762;2023-05-27T08:19:10;6.40;;;2.33;;
17504;SDS011;8870;50.950;11.762;2023-05-27T08:25:01;7.03;;;2.50;;
17504;SDS011;8870;50.950;11.762;2023-05-27T08:30:35;8.27;;;2.50;;
17504;SDS011;8870;50.950;11.762;2023-05-27T08:36:24;6.00;;;2.28;;
17504;SDS011;8870;50.950;11.762;2023-05-27T08:41:43;7.38;;;2.10;;
17504;SDS011;8870;50.950;11.762;2023-05-27T08:47:17;7.63;;;2.28;;
17504;SDS011;8870;50.950;11.762;2023-05-27T08:52:37;7.28;;;2.40;;
17504;SDS011;8870;50.950;11.762;2023-05-27T08:58:14;6.57;;;2.17;;
17504;SDS011;8870;50.950;11.762;2023-05-27T09:03:36;6.65;;;2.22;;
17504;SDS011;8870;50.950;11.762;2023-05-27T09:09:08;7.47;;;2.60;;
17504;SDS011;8870;50.950;11.762;2023-05-27T09:14:27;7.90;;;2.50;;
17504;SDS011;8870;50.950;11.762;2023-05-27T09:20:03;6.13;;;2.33;;
17504;SDS011;8870;50.950;11.762;2023-05-27T09:25:24;6.37;;;2.37;;
17504;SDS011;8870;50.950;11.762;2023-05-27T09:31:01;5.55;;;1.98;;
17504;SDS011;8870;50.950;11.762;2023-05-27T09:36:23;6.97;;;2.50;;
17504;SDS011;8870;50.950;11.762;2023-05-27T09:41:56;5.07;;;2.08;;
17504;SDS011;8870;50.950;11.762;2023-05-27T09:47:16;7.57;;;2.30;;
17504;SDS011;8870;50.950;11.762;2023-05-27T09:52:51;6.70;;;2.25;;
17504;SDS011;8870;50.950;11.762;2023-05-27T09:58:20;8.52;;;2.15;;
17504;SDS011;8870;50.950;11.762;2023-05-27T10:03:51;6.57;;;2.10;;
17504;SDS011;8870;50.950;11.762;2023-05-27T10:09:12;7.07;;;2.30;;
17504;SDS011;8870;50.950;11.762;2023-05-27T10:14:44;5.63;;;1.90;;
17504;SDS011;8870;50.950;11.762;2023-05-27T10:20:03;6.63;;;2.20;;
17504;SDS011;8870;50.950;11.762;2023-05-27T10:25:39;8.07;;;2.35;;
17504;SDS011;8870;50.950;11.762;2023-05-27T10:31:04;5.35;;;2.40;;
17504;SDS011;8870;50.950;11.762;2023-05-27T10:36:36;5.10;;;2.10;;
17504;SDS011;8870;50.950;11.762;2023-05-27T10:42:05;5.80;;;2.25;;
17504;SDS011;8870;50.950;11.762;2023-05-27T10:47:37;4.55;;;2.03;;
17504;SDS011;8870;50.950;11.762;2023-05-27T10:52:55;4.78;;;1.90;;
17504;SDS011;8870;50.950;11.762;2023-05-27T10:58:30;4.80;;;2.20;;
17504;SDS011;8870;50.950;11.762;2023-05-27T11:03:51;4.43;;;1.98;;
17504;SDS011;8870;50.950;11.762;2023-05-27T11:09:22;3.55;;;2.00;;
17504;SDS011;8870;50.950;11.762;2023-05-27T11:14:43;6.93;;;2.08;;
17504;SDS011;8870;50.950;11.762;2023-05-27T11:20:15;5.05;;;2.28;;
17504;SDS011;8870;50.950;11.762;2023-05-27T11:25:42;4.75;;;1.98;;
17504;SDS011;8870;50.950;11.762;2023-05-27T11:31:16;8.05;;;2.20;;
17504;SDS011;8870;50.950;11.762;2023-05-27T11:36:35;8.50;;;2.30;;
17504;SDS011;8870;50.950;11.762;2023-05-27T11:42:08;4.80;;;1.98;;
17504;SDS011;8870;50.950;11.762;2023-05-27T11:47:43;6.30;;;2.00;;
17504;SDS011;8870;50.950;11.762;2023-05-27T11:53:05;5.95;;;2.00;;
17504;SDS011;8870;50.950;11.762;2023-05-27T11:58:35;8.85;;;1.92;;
17504;SDS011;8870;50.950;11.762;2023-05-27T12:03:56;5.55;;;1.83;;
17504;SDS011;8870;50.950;11.762;2023-05-27T12:09:28;7.22;;;2.13;;
17504;SDS011;8870;50.950;11.762;2023-05-27T12:14:47;5.07;;;1.70;;
17504;SDS011;8870;50.950;11.762;2023-05-27T12:20:21;4.53;;;1.67;;
17504;SDS011;8870;50.950;11.762;2023-05-27T12:25:42;4.53;;;1.85;;
17504;SDS011;8870;50.950;11.762;2023-05-27T12:31:12;4.30;;;1.58;;
17504;SDS011;8870;50.950;11.762;2023-05-27T12:36:33;6.82;;;1.70;;
17504;SDS011;8870;50.950;11.762;2023-05-27T12:42:05;3.28;;;1.50;;
17504;SDS011;8870;50.950;11.762;2023-05-27T12:47:36;3.85;;;1.58;;
17504;SDS011;8870;50.950;11.762;2023-05-27T12:52:59;4.00;;;1.58;;
17504;SDS011;8870;50.950;11.762;2023-05-27T12:58:29;4.80;;;1.65;;
17504;SDS011;8870;50.950;11.762;2023-05-27T13:03:48;3.25;;;1.40;;
17504;SDS011;8870;50.950;11.762;2023-05-27T13:09:21;3.78;;;1.67;;
17504;SDS011;8870;50.950;11.762;2023-05-27T13:14:40;3.42;;;1.60;;
17504;SDS011;8870;50.950;11.762;2023-05-27T13:20:12;3.13;;;1.50;;
17504;SDS011;8870;50.950;11.762;2023-05-27T13:25:33;2.33;;;1.35;;
17504;SDS011;8870;50.950;11.762;2023-05-27T13:31:04;2.97;;;1.50;;
17504;SDS011;8870;50.950;11.762;2023-05-27T13:36:24;4.35;;;1.50;;
17504;SDS011;8870;50.950;11.762;2023-05-27T13:41:59;3.63;;;1.65;;
17504;SDS011;8870;50.950;11.762;2023-05-27T13:47:32;3.85;;;1.40;;
17504;SDS011;8870;50.950;11.762;2023-05-27T13:52:54;2.78;;;1.45;;
17504;SDS011;8870;50.950;11.762;2023-05-27T13:58:28;3.03;;;1.50;;
17504;SDS011;8870;50.950;11.762;2023-05-27T14:03:47;3.63;;;1.63;;
17504;SDS011;8870;50.950;11.762;2023-05-27T14:09:18;4.18;;;1.60;;
17504;SDS011;8870;50.950;11.762;2023-05-27T14:14:39;3.63;;;1.40;;
17504;SDS011;8870;50.950;11.762;2023-05-27T14:20:12;5.97;;;1.30;;
17504;SDS011;8870;50.950;11.762;2023-05-27T14:25:37;4.40;;;1.58;;
17504;SDS011;8870;50.950;11.762;2023-05-27T14:31:11;3.45;;;1.30;;
17504;SDS011;8870;50.950;11.762;2023-05-27T14:36:30;4.55;;;1.60;;
17504;SDS011;8870;50.950;11.762;2023-05-27T14:42:02;2.33;;;1.30;;
17504;SDS011;8870;50.950;11.762;2023-05-27T14:47:36;3.00;;;1.40;;
17504;SDS011;8870;50.950;11.762;2023-05-27T14:52:55;3.17;;;1.50;;
17504;SDS011;8870;50.950;11.762;2023-05-27T14:58:26;2.90;;;1.40;;
17504;SDS011;8870;50.950;11.762;2023-05-27T15:03:47;2.75;;;1.38;;
17504;SDS011;8870;50.950;11.762;2023-05-27T15:09:19;2.35;;;1.23;;
17504;SDS011;8870;50.950;11.762;2023-05-27T15:14:38;4.40;;;1.42;;
17504;SDS011;8870;50.950;11.762;2023-05-27T15:20:16;4.55;;;1.40;;
17504;SDS011;8870;50.950;11.762;2023-05-27T15:25:36;2.25;;;1.10;;
17504;SDS011;8870;50.950;11.762;2023-05-27T15:31:07;2.42;;;1.40;;
17504;SDS011;8870;50.950;11.762;2023-05-27T15:42:05;4.85;;;1.50;;
17504;SDS011;8870;50.950;11.762;2023-05-27T15:52:56;5.30;;;1.40;;
17504;SDS011;8870;50.950;11.762;2023-05-27T15:58:29;4.93;;;1.45;;
17504;SDS011;8870;50.950;11.762;2023-05-27T16:03:47;4.68;;;1.42;;
17504;SDS011;8870;50.950;11.762;2023-05-27T16:09:20;3.22;;;1.30;;
17504;SDS011;8870;50.950;11.762;2023-05-27T16:14:39;2.08;;;1.10;;
17504;SDS011;8870;50.950;11.762;2023-05-27T16:20:10;4.18;;;1.15;;
17504;SDS011;8870;50.950;11.762;2023-05-27T16:25:33;1.73;;;1.00;;
17504;SDS011;8870;50.950;11.762;2023-05-27T16:31:04;3.72;;;1.33;;
17504;SDS011;8870;50.950;11.762;2023-05-27T16:36:23;4.07;;;1.30;;
17504;SDS011;8870;50.950;11.762;2023-05-27T16:41:56;5.82;;;1.20;;
17504;SDS011;8870;50.950;11.762;2023-05-27T16:47:28;3.63;;;1.40;;
17504;SDS011;8870;50.950;11.762;2023-05-27T16:52:46;2.95;;;1.20;;
17504;SDS011;8870;50.950;11.762;2023-05-27T16:58:19;2.90;;;1.30;;
17504;SDS011;8870;50.950;11.762;2023-05-27T17:03:40;2.53;;;1.15;;
17504;SDS011;8870;50.950;11.762;2023-05-27T17:09:11;2.50;;;1.23;;
17504;SDS011;8870;50.950;11.762;2023-05-27T17:14:31;1.58;;;1.13;;
17504;SDS011;8870;50.950;11.762;2023-05-27T17:20:05;2.45;;;1.13;;
17504;SDS011;8870;50.950;11.762;2023-05-27T17:25:33;1.95;;;1.20;;
17504;SDS011;8870;50.950;11.762;2023-05-27T17:31:07;3.90;;;1.23;;
17504;SDS011;8870;50.950;11.762;2023-05-27T17:36:26;2.60;;;1.40;;
17504;SDS011;8870;50.950;11.762;2023-05-27T17:41:58;5.07;;;1.23;;
17504;SDS011;8870;50.950;11.762;2023-05-27T17:47:19;1.88;;;1.10;;
17504;SDS011;8870;50.950;11.762;2023-05-27T17:52:52;1.85;;;1.02;;
17504;SDS011;8870;50.950;11.762;2023-05-27T17:58:10;4.30;;;1.20;;
17504;SDS011;8870;50.950;11.762;2023-05-27T18:03:43;2.08;;;1.08;;
17504;SDS011;8870;50.950;11.762;2023-05-27T18:09:02;2.75;;;1.38;;
17504;SDS011;8870;50.950;11.762;2023-05-27T18:14:34;2.22;;;1.23;;
17504;SDS011;8870;50.950;11.762;2023-05-27T18:19:55;2.40;;;1.05;;
17504;SDS011;8870;50.950;11.762;2023-05-27T18:25:28;1.52;;;1.00;;
17504;SDS011;8870;50.950;11.762;2023-05-27T18:30:46;3.22;;;1.27;;
17504;SDS011;8870;50.950;11.762;2023-05-27T18:36:19;2.92;;;1.35;;
17504;SDS011;8870;50.950;11.762;2023-05-27T18:41:38;4.40;;;1.50;;
17504;SDS011;8870;50.950;11.762;2023-05-27T18:47:11;2.03;;;1.10;;
17504;SDS011;8870;50.950;11.762;2023-05-27T18:52:32;1.83;;;1.13;;
17504;SDS011;8870;50.950;11.762;2023-05-27T18:58:03;2.47;;;1.20;;
17504;SDS011;8870;50.950;11.762;2023-05-27T19:03:22;2.47;;;1.33;;
17504;SDS011;8870;50.950;11.762;2023-05-27T19:08:57;2.33;;;1.30;;
17504;SDS011;8870;50.950;11.762;2023-05-27T19:14:15;2.10;;;1.27;;
17504;SDS011;8870;50.950;11.762;2023-05-27T19:19:46;2.50;;;1.23;;
17504;SDS011;8870;50.950;11.762;2023-05-27T19:25:07;2.75;;;1.30;;
17504;SDS011;8870;50.950;11.762;2023-05-27T19:30:39;4.15;;;1.30;;
17504;SDS011;8870;50.950;11.762;2023-05-27T19:35:57;4.70;;;1.52;;
17504;SDS011;8870;50.950;11.762;2023-05-27T19:41:31;2.50;;;1.20;;
17504;SDS011;8870;50.950;11.762;2023-05-27T19:46:53;1.63;;;1.10;;
17504;SDS011;8870;50.950;11.762;2023-05-27T19:52:37;1.95;;;1.20;;
17504;SDS011;8870;50.950;11.762;2023-05-27T19:57:58;2.20;;;1.25;;
17504;SDS011;8870;50.950;11.762;2023-05-27T20:03:31;2.35;;;1.17;;
17504;SDS011;8870;50.950;11.762;2023-05-27T20:08:49;1.73;;;1.10;;
17504;SDS011;8870;50.950;11.762;2023-05-27T20:14:24;1.70;;;1.17;;
17504;SDS011;8870;50.950;11.762;2023-05-27T20:19:42;2.60;;;1.45;;
17504;SDS011;8870;50.950;11.762;2023-05-27T20:25:13;3.75;;;1.30;;
17504;SDS011;8870;50.950;11.762;2023-05-27T20:30:33;2.88;;;1.50;;
17504;SDS011;8870;50.950;11.762;2023-05-27T20:36:07;2.25;;;1.20;;
17504;SDS011;8870;50.950;11.762;2023-05-27T20:41:26;4.57;;;1.38;;
17504;SDS011;8870;50.950;11.762;2023-05-27T20:46:59;3.50;;;1.50;;
17504;SDS011;8870;50.950;11.762;2023-05-27T20:52:19;2.50;;;1.45;;
17504;SDS011;8870;50.950;11.762;2023-05-27T20:57:50;2.10;;;1.30;;
17504;SDS011;8870;50.950;11.762;2023-05-27T21:03:11;4.18;;;1.70;;
17504;SDS011;8870;50.950;11.762;2023-05-27T21:08:43;3.80;;;1.88;;
17504;SDS011;8870;50.950;11.762;2023-05-27T21:14:01;2.53;;;1.70;;
17504;SDS011;8870;50.950;11.762;2023-05-27T21:19:35;3.80;;;2.00;;
17504;SDS011;8870;50.950;11.762;2023-05-27T21:24:54;4.63;;;2.17;;
17504;SDS011;8870;50.950;11.762;2023-05-27T21:30:25;4.13;;;2.22;;
17504;SDS011;8870;50.950;11.762;2023-05-27T21:35:46;3.20;;;2.10;;
17504;SDS011;8870;50.950;11.762;2023-05-27T21:41:19;3.42;;;2.10;;
17504;SDS011;8870;50.950;11.762;2023-05-27T21:46:38;3.47;;;2.00;;
17504;SDS011;8870;50.950;11.762;2023-05-27T21:52:11;5.18;;;2.10;;
17504;SDS011;8870;50.950;11.762;2023-05-27T21:57:30;3.65;;;1.98;;
17504;SDS011;8870;50.950;11.762;2023-05-27T22:03:03;3.38;;;2.05;;
17504;SDS011;8870;50.950;11.762;2023-05-27T22:08:24;3.38;;;1.95;;
17504;SDS011;8870;50.950;11.762;2023-05-27T22:13:55;3.20;;;1.80;;
17504;SDS011;8870;50.950;11.762;2023-05-27T22:19:13;3.78;;;2.10;;
17504;SDS011;8870;50.950;11.762;2023-05-27T22:24:48;3.72;;;1.98;;
17504;SDS011;8870;50.950;11.762;2023-05-27T22:30:07;4.28;;;2.17;;
17504;SDS011;8870;50.950;11.762;2023-05-27T22:35:38;2.88;;;1.85;;
